Stations météo

réclame
Mon MeteoGroup
Braemar, Grande-Bretagne (99089): Température de l'air & dewpoint: 11.10.2018 21:00:00 - 17.10.2018 21:00:00 (BST)Braemar, Grande-Bretagne (99089): Température de l'air -20cm & Température de l'air -100cm: 11.10.2018 21:00:00 - 17.10.2018 21:00:00 (BST)Braemar, Grande-Bretagne (99089): Quantités de précipitations: 11.10.2018 21:00:00 - 17.10.2018 21:00:00 (BST)
Date & Time tt [°C] td [°C] tt -20cm [°C] tt -100cm [°C] rr [mm]
17.10.2018 21:00:00 5,8 3,2 - - 0,0
17.10.2018 20:00:00 6,2 2,0 - - 0,0
17.10.2018 19:00:00 7,4 3,3 - - 0,0
17.10.2018 18:00:00 7,8 2,3 - - 0,0
17.10.2018 17:00:00 9,2 2,3 - - 0,0
17.10.2018 16:00:00 10,2 3,1 - - 0,0
17.10.2018 15:00:00 10,1 2,7 - - 0,0
17.10.2018 14:00:00 10,4 3,3 - - 0,0
17.10.2018 13:00:00 10,8 4,7 - - 0,0
17.10.2018 12:00:00 9,9 5,8 - - 0,0
17.10.2018 11:00:00 8,5 6,6 - - 0,2
17.10.2018 10:00:00 7,7 6,6 8,5 9,5 0,2
17.10.2018 09:00:00 8,6 6,5 - - 0,0
17.10.2018 08:00:00 8,1 5,5 - - 0,0
17.10.2018 07:00:00 8,4 5,2 - - 0,0
17.10.2018 06:00:00 8,6 5,2 - - 0,0
17.10.2018 05:00:00 7,7 4,8 - - 0,0
17.10.2018 04:00:00 7,5 3,9 - - 0,0
17.10.2018 03:00:00 9,0 5,5 - - 0,0
17.10.2018 02:00:00 10,4 7,3 - - 0,0
17.10.2018 01:00:00 11,1 7,0 - - 0,0
17.10.2018 00:00:00 10,6 6,7 - - 0,0
16.10.2018 23:00:00 10,2 6,3 - - 0,0
16.10.2018 22:00:00 10,3 6,6 - - 0,0
16.10.2018 21:00:00 10,6 6,3 - - 0,0
16.10.2018 20:00:00 10,3 5,7 - - 0,0
16.10.2018 19:00:00 10,7 6,0 - - 0,0
16.10.2018 18:00:00 11,1 7,2 - - 0,0
16.10.2018 17:00:00 11,3 8,2 - - 0,0
16.10.2018 16:00:00 11,7 7,9 - - 0,0
16.10.2018 15:00:00 11,5 7,6 - - 0,0
16.10.2018 14:00:00 11,6 6,8 - - 0,0
16.10.2018 13:00:00 11,6 6,0 - - 0,0
16.10.2018 12:00:00 11,0 5,8 - - 0,0
16.10.2018 11:00:00 10,0 6,5 - - 0,0
16.10.2018 10:00:00 8,2 6,3 8,2 9,7 0,0
16.10.2018 09:00:00 7,3 5,3 - - 0,0
16.10.2018 08:00:00 7,4 4,7 - - 0,0
16.10.2018 07:00:00 7,3 4,4 - - 0,0
16.10.2018 06:00:00 6,9 4,4 - - 0,0
16.10.2018 05:00:00 6,6 3,7 - - 0,0
16.10.2018 04:00:00 6,5 4,3 - - 0,0
16.10.2018 03:00:00 3,3 2,8 - - 0,0
16.10.2018 02:00:00 2,6 2,1 - - 0,0
16.10.2018 01:00:00 3,2 2,3 - - 0,0
16.10.2018 00:00:00 2,7 2,2 - - 0,0
15.10.2018 23:00:00 2,9 2,3 - - 0,0
15.10.2018 22:00:00 2,6 2,2 - - 0,0
15.10.2018 21:00:00 2,6 1,8 - - 0,0
15.10.2018 20:00:00 3,0 2,0 - - 0,0
15.10.2018 19:00:00 4,7 2,7 - - 0,0
15.10.2018 18:00:00 7,7 3,4 - - 0,0
15.10.2018 17:00:00 10,9 3,6 - - 0,0
15.10.2018 16:00:00 11,8 3,6 - - 0,0
15.10.2018 15:00:00 11,7 2,9 - - 0,0
15.10.2018 14:00:00 11,5 3,4 - - 0,0
15.10.2018 13:00:00 9,9 3,0 - - 0,0
15.10.2018 12:00:00 9,6 3,8 - - 0,0
15.10.2018 11:00:00 5,5 3,4 - - 0,0
15.10.2018 10:00:00 1,5 1,1 8,7 9,9 0,2
15.10.2018 09:00:00 0,9 0,6 - - 0,0
15.10.2018 08:00:00 0,3 0,2 - - 0,0
15.10.2018 07:00:00 0,5 0,5 - - 0,0
15.10.2018 06:00:00 0,2 0,1 - - 0,0
15.10.2018 05:00:00 0,0 -0,1 - - 0,0
15.10.2018 04:00:00 -0,2 -0,3 - - 0,0
15.10.2018 03:00:00 -0,3 -0,3 - - 0,0
15.10.2018 02:00:00 -1,2 -1,5 - - 0,0
15.10.2018 01:00:00 -0,3 -0,3 - - 0,0
15.10.2018 00:00:00 -1,4 -1,7 - - 0,0
14.10.2018 23:00:00 -0,7 -1,1 - - 0,0
14.10.2018 22:00:00 0,3 0,1 - - 0,0
14.10.2018 21:00:00 1,3 0,9 - - 0,0
14.10.2018 20:00:00 1,9 0,8 - - 0,0
14.10.2018 19:00:00 3,2 0,9 - - 0,0
14.10.2018 18:00:00 6,4 1,9 - - 0,0
14.10.2018 17:00:00 10,4 2,2 - - 0,0
14.10.2018 16:00:00 10,6 2,7 - - 0,0
14.10.2018 15:00:00 10,4 2,4 - - 0,0
14.10.2018 14:00:00 9,3 3,6 - - 0,0
14.10.2018 13:00:00 7,9 4,0 - - 0,0
14.10.2018 12:00:00 7,0 4,0 - - 0,0
14.10.2018 11:00:00 6,0 4,1 - - 0,0
14.10.2018 10:00:00 5,2 3,7 9,7 9,9 0,0
14.10.2018 09:00:00 4,7 3,2 - - 0,0
14.10.2018 08:00:00 4,8 2,8 - - 0,0
14.10.2018 07:00:00 5,4 2,8 - - 0,0
14.10.2018 06:00:00 6,9 3,6 - - 0,0
14.10.2018 05:00:00 7,8 3,5 - - 0,0
14.10.2018 04:00:00 7,5 5,5 - - 0,0
14.10.2018 03:00:00 8,0 4,7 - - 0,0
14.10.2018 02:00:00 8,6 5,0 - - 0,0
14.10.2018 01:00:00 9,1 5,2 - - 0,0
14.10.2018 00:00:00 9,6 7,9 - - 0,0
13.10.2018 23:00:00 12,4 9,9 - - 0,0
13.10.2018 22:00:00 13,5 10,7 - - 0,2
13.10.2018 21:00:00 13,2 12,8 - - 1,6
13.10.2018 20:00:00 9,7 9,5 - - 1,0
13.10.2018 19:00:00 10,0 9,4 - - 0,4
13.10.2018 18:00:00 9,1 8,5 - - 1,0
13.10.2018 17:00:00 8,7 8,4 - - 3,2
13.10.2018 16:00:00 8,7 7,9 - - 2,0
13.10.2018 15:00:00 8,9 8,1 - - 2,2
13.10.2018 14:00:00 9,0 8,1 - - 1,8
13.10.2018 13:00:00 9,0 8,0 - - 1,4
13.10.2018 12:00:00 8,9 8,1 - - 2,0
13.10.2018 11:00:00 9,2 7,6 - - 0,2
13.10.2018 10:00:00 8,4 6,9 9,7 9,9 0,0
13.10.2018 09:00:00 7,8 6,6 - - 0,0
13.10.2018 08:00:00 9,0 6,2 - - 0,0
13.10.2018 07:00:00 9,1 6,2 - - 0,0
13.10.2018 06:00:00 9,2 6,1 - - 0,0
13.10.2018 05:00:00 8,8 6,0 - - 0,0
13.10.2018 04:00:00 9,9 6,2 - - 0,0
13.10.2018 03:00:00 10,4 6,1 - - 0,0
13.10.2018 02:00:00 11,2 6,1 - - 0,0
13.10.2018 01:00:00 11,4 6,1 - - 0,0
13.10.2018 00:00:00 11,8 6,7 - - 0,0
12.10.2018 23:00:00 11,6 6,6 - - 0,0
12.10.2018 22:00:00 11,4 6,4 - - 0,0
12.10.2018 21:00:00 11,2 6,6 - - 0,0
12.10.2018 20:00:00 11,2 7,9 - - 0,4
12.10.2018 19:00:00 11,3 9,4 - - 0,2
12.10.2018 18:00:00 10,6 9,2 - - 1,6
12.10.2018 17:00:00 10,4 9,1 - - 3,4
12.10.2018 16:00:00 10,9 9,8 - - 4,8
12.10.2018 15:00:00 11,4 9,0 - - 2,2
12.10.2018 14:00:00 13,3 8,7 - - 0,0
12.10.2018 13:00:00 13,3 8,1 - - 0,0
12.10.2018 12:00:00 13,6 8,5 - - 0,0
12.10.2018 11:00:00 11,4 9,2 - - 2,0
12.10.2018 10:00:00 11,2 9,4 10,0 9,7 1,6
12.10.2018 09:00:00 9,5 8,1 - - 1,4
12.10.2018 08:00:00 8,8 6,8 - - 3,8
12.10.2018 07:00:00 9,3 6,4 - - 0,4
12.10.2018 06:00:00 8,0 6,4 - - 0,0
12.10.2018 05:00:00 3,7 3,7 - - 0,0
12.10.2018 04:00:00 3,3 3,1 - - 0,0
12.10.2018 03:00:00 3,9 3,8 - - 0,0
12.10.2018 02:00:00 5,1 3,5 - - 0,0
12.10.2018 01:00:00 7,7 6,4 - - 0,0
12.10.2018 00:00:00 9,9 8,0 - - 0,0
11.10.2018 23:00:00 10,0 8,2 - - 0,0
11.10.2018 22:00:00 10,4 8,7 - - 1,2
11.10.2018 21:00:00 10,6 9,1 - - 3,0

tt = Température de l'air
td = dewpoint
tt -20cm = Température de l'air -20cm
tt -100cm = Température de l'air -100cm
rr = Quantités de précipitations

stations d'obs. à proximité